Time;durP1;ratioP1;P1;durP2;ratioP2;P2;SDS_P1;SDS_P2;PMS_P1;PMS_P2;Temp;Humidity;BMP_temperature;BMP_pressure;BME280_temperature;BME280_humidity;BME280_pressure;Samples;Min_cycle;Max_cycle;Signal;HPM_P1;HPM_P2
2022/10/14 00:00:21;;;;;;;8.48;6.15;;;;;;;21.09;46.51;101370.34;1730156;81;21080;-77
2022/10/14 00:02:48;;;;;;;9.40;6.55;;;;;;;21.09;46.51;101366.20;1730413;81;21044;-77
2022/10/14 00:05:15;;;;;;;9.70;6.28;;;;;;;21.10;46.51;101367.84;1730312;81;21021;-78
2022/10/14 00:07:41;;;;;;;7.62;5.78;;;;;;;21.10;46.52;101365.08;1730157;81;21527;-76
2022/10/14 00:10:07;;;;;;;11.28;6.40;;;;;;;21.10;46.51;101357.34;1709805;83;21240;-77
2022/10/14 00:12:34;;;;;;;6.75;5.90;;;;;;;21.09;46.49;101363.44;1730622;82;21029;-77
2022/10/14 00:15:00;;;;;;;8.65;6.22;;;;;;;21.09;46.49;101358.49;1730240;81;21064;-76
2022/10/14 00:17:26;;;;;;;9.23;5.90;;;;;;;21.09;46.50;101358.49;1730471;83;21060;-77
2022/10/14 00:19:52;;;;;;;8.55;5.92;;;;;;;21.09;46.51;101357.11;1701125;82;21538;-77
2022/10/14 00:22:19;;;;;;;10.00;6.33;;;;;;;21.09;46.52;101355.13;1724028;81;21179;-77
2022/10/14 00:24:45;;;;;;;7.92;6.35;;;;;;;21.09;46.52;101355.13;1720651;81;21055;-77
2022/10/14 00:27:11;;;;;;;9.40;5.90;;;;;;;21.10;46.51;101344.89;1719359;82;21085;-77
2022/10/14 00:29:38;;;;;;;8.45;6.37;;;;;;;21.09;46.52;101346.05;1701579;81;21189;-77
2022/10/14 00:32:04;;;;;;;10.13;6.10;;;;;;;21.08;46.51;101340.25;1719327;83;21084;-77
2022/10/14 00:34:31;;;;;;;9.03;6.05;;;;;;;21.08;46.51;101343.02;1755215;81;21108;-77
2022/10/14 00:36:57;;;;;;;9.58;6.40;;;;;;;21.09;46.51;101339.13;1696180;83;21522;-77
2022/10/14 00:39:24;;;;;;;7.78;6.12;;;;;;;21.08;46.51;101335.53;1755238;81;21150;-77
2022/10/14 00:41:50;;;;;;;8.58;6.00;;;;;;;21.08;46.50;101332.77;1719447;82;21028;-77
2022/10/14 00:44:22;;;;;;;7.55;6.15;;;;;;;21.08;46.52;101327.80;1755207;81;21578;-77
2022/10/14 00:46:49;;;;;;;8.68;6.40;;;;;;;21.07;46.51;101329.73;1719348;82;21482;-77
2022/10/14 00:49:27;;;;;;;8.20;5.95;;;;;;;21.07;46.52;101326.15;1755187;80;21071;-77
2022/10/14 00:52:00;;;;;;;9.00;6.12;;;;;;;21.08;46.51;101325.03;1754953;81;21039;-77
2022/10/14 00:54:34;;;;;;;7.83;5.62;;;;;;;21.07;46.51;101328.35;1754404;80;21068;-77
2022/10/14 00:57:01;;;;;;;10.45;5.72;;;;;;;21.07;46.52;101325.59;1750355;80;21047;-77
2022/10/14 00:59:27;;;;;;;7.45;5.60;;;;;;;21.07;46.52;101323.38;1721693;82;21314;-78
2022/10/14 01:01:54;;;;;;;7.95;5.35;;;;;;;21.07;46.52;101323.38;1709261;80;21048;-77
2022/10/14 01:04:20;;;;;;;8.15;6.30;;;;;;;21.06;46.51;101323.12;1747309;82;21072;-77
2022/10/14 01:07:12;;;;;;;8.28;5.60;;;;;;;21.06;46.52;101325.33;1747381;80;21075;-77
2022/10/14 01:09:48;;;;;;;6.65;5.45;;;;;;;21.06;46.53;101328.66;1747386;80;21087;-77
2022/10/14 01:12:46;;;;;;;7.85;5.65;;;;;;;21.05;46.52;101317.36;1747693;80;21004;-77
2022/10/14 01:16:01;;;;;;;7.30;5.70;;;;;;;21.05;46.52;101321.50;1747107;80;20968;-77
2022/10/14 01:19:00;;;;;;;10.38;5.75;;;;;;;21.04;46.50;101324.83;1724055;82;21066;-76
2022/10/14 01:22:01;;;;;;;7.05;5.40;;;;;;;21.03;46.50;101330.66;1723599;81;21631;-78
2022/10/14 01:24:38;;;;;;;9.63;5.95;;;;;;;21.02;46.50;101316.56;1722451;81;21027;-78
2022/10/14 01:27:30;;;;;;;6.75;5.25;;;;;;;21.01;46.50;101330.12;1723804;82;21690;-78
2022/10/14 01:30:14;;;;;;;8.40;5.45;;;;;;;21.01;46.50;101324.59;1723958;82;21101;-78
2022/10/14 01:33:05;;;;;;;7.78;5.80;;;;;;;21.00;46.55;101320.22;1648676;83;21143;-80
2022/10/14 01:35:52;;;;;;;10.08;5.33;;;;;;;21.00;46.55;101321.04;1723712;83;21637;-78
2022/10/14 01:38:35;;;;;;;7.50;5.22;;;;;;;21.00;46.56;101318.84;1723793;82;21170;-78
2022/10/14 01:41:12;;;;;;;7.28;5.30;;;;;;;20.98;46.58;101311.66;1723704;82;22212;-78
2022/10/14 01:43:39;;;;;;;8.38;5.80;;;;;;;20.99;46.57;101312.48;1723717;81;21481;-78
2022/10/14 01:46:06;;;;;;;8.03;5.83;;;;;;;20.98;46.58;101313.04;1723771;81;21092;-78
2022/10/14 01:48:35;;;;;;;8.03;6.03;;;;;;;20.98;46.58;101308.89;1695066;81;21083;-78
2022/10/14 01:51:07;;;;;;;7.53;5.35;;;;;;;21.00;46.60;101309.16;1724078;81;20996;-78
2022/10/14 01:53:43;;;;;;;8.53;5.67;;;;;;;20.98;46.59;101300.59;1724066;81;21607;-77
2022/10/14 01:56:09;;;;;;;7.95;5.55;;;;;;;20.99;46.62;101304.18;1721836;82;21064;-78
2022/10/14 01:58:36;;;;;;;9.60;5.67;;;;;;;21.00;46.62;101307.77;1721847;81;21020;-78
2022/10/14 02:01:04;;;;;;;8.65;5.80;;;;;;;20.99;46.62;101301.41;1715614;82;21056;-78
2022/10/14 02:03:45;;;;;;;7.53;5.05;;;;;;;20.99;46.60;101304.18;1721503;83;21507;-78
2022/10/14 02:06:32;;;;;;;7.25;5.17;;;;;;;21.00;46.62;101307.77;1721819;83;21068;-78
2022/10/14 02:09:22;;;;;;;8.38;5.83;;;;;;;20.98;46.62;101304.73;1718135;82;21038;-78
2022/10/14 02:12:32;;;;;;;7.17;5.55;;;;;;;20.98;46.62;101308.89;1738361;82;21537;-80
2022/10/14 02:15:16;;;;;;;7.83;5.60;;;;;;;20.97;46.60;101303.09;1738084;82;21748;-78
2022/10/14 02:17:56;;;;;;;8.78;5.83;;;;;;;20.97;46.59;101309.19;1738472;82;21061;-78
2022/10/14 02:20:43;;;;;;;7.20;5.45;;;;;;;20.96;46.60;101307.57;1738254;82;21139;-78
2022/10/14 02:23:16;;;;;;;8.03;5.45;;;;;;;20.96;46.59;101313.89;1737216;82;21093;-78
2022/10/14 02:25:44;;;;;;;9.13;6.25;;;;;;;20.96;46.61;101317.25;1738079;82;21026;-78
2022/10/14 02:28:11;;;;;;;8.08;5.37;;;;;;;20.96;46.63;101318.05;1738374;82;21030;-78
2022/10/14 02:30:45;;;;;;;8.55;5.87;;;;;;;20.96;46.63;101323.58;1738283;82;20990;-78
2022/10/14 02:33:11;;;;;;;8.83;6.10;;;;;;;20.96;46.62;101320.02;1738254;82;21886;-78
2022/10/14 02:35:38;;;;;;;6.05;4.92;;;;;;;20.97;46.65;101321.63;1738157;81;21017;-78
2022/10/14 02:38:05;;;;;;;7.50;5.60;;;;;;;20.96;46.64;101319.42;1738388;81;21112;-78
2022/10/14 02:40:47;;;;;;;8.85;5.47;;;;;;;20.96;46.63;101326.34;1738083;82;21053;-79
2022/10/14 02:43:19;;;;;;;7.45;5.35;;;;;;;20.96;46.60;101315.88;1738077;81;21358;-78
2022/10/14 02:45:46;;;;;;;7.67;5.53;;;;;;;20.96;46.62;101321.41;1738658;82;21216;-78
2022/10/14 02:48:13;;;;;;;8.38;5.60;;;;;;;20.96;46.62;101326.94;1739733;81;21026;-78
2022/10/14 02:50:40;;;;;;;6.67;5.47;;;;;;;20.97;46.64;101318.31;1739805;81;22243;-78
2022/10/14 02:53:06;;;;;;;6.80;5.20;;;;;;;20.97;46.61;101314.72;1739679;82;21048;-78
2022/10/14 02:55:32;;;;;;;7.15;5.60;;;;;;;20.96;46.61;101315.88;1743700;82;21065;-78
2022/10/14 02:57:59;;;;;;;7.22;5.12;;;;;;;20.98;46.64;101320.52;1748510;82;21491;-78
2022/10/14 03:00:31;;;;;;;7.10;5.33;;;;;;;20.96;46.63;101319.42;1747983;82;21464;-78
2022/10/14 03:02:57;;;;;;;7.58;5.30;;;;;;;20.96;46.64;101319.42;1748210;82;21041;-78
2022/10/14 03:05:23;;;;;;;7.37;5.53;;;;;;;20.96;46.61;101315.28;1748264;82;21428;-78
2022/10/14 03:07:50;;;;;;;7.67;5.28;;;;;;;20.97;46.63;101317.48;1719273;82;21120;-78
2022/10/14 03:10:16;;;;;;;6.87;4.72;;;;;;;20.97;46.63;101314.16;1748266;82;21205;-78
2022/10/14 03:12:42;;;;;;;7.50;5.25;;;;;;;20.97;46.61;101313.34;1748339;82;21084;-78
2022/10/14 03:15:09;;;;;;;6.55;5.03;;;;;;;20.97;46.63;101312.77;1748200;82;21546;-78
2022/10/14 03:17:36;;;;;;;8.25;5.10;;;;;;;20.97;46.63;101308.63;1748357;82;21012;-78
2022/10/14 03:20:04;;;;;;;6.83;4.92;;;;;;;20.97;46.63;101310.57;1748124;82;21064;-78
2022/10/14 03:22:31;;;;;;;6.97;5.10;;;;;;;20.96;46.63;101305.59;1747353;80;21230;-78
2022/10/14 03:24:57;;;;;;;7.85;5.40;;;;;;;20.97;46.63;101305.04;1747930;82;21499;-78
2022/10/14 03:27:23;;;;;;;6.55;4.95;;;;;;;20.97;46.64;101296.17;1748046;82;21072;-78
2022/10/14 03:29:50;;;;;;;8.33;5.30;;;;;;;20.97;46.63;101300.89;1748202;82;21048;-78
2022/10/14 03:32:16;;;;;;;9.75;5.75;;;;;;;20.96;46.61;101302.83;1748466;82;21557;-78
2022/10/14 03:34:43;;;;;;;7.37;5.12;;;;;;;20.96;46.64;101295.91;1748120;82;21272;-78
2022/10/14 03:37:09;;;;;;;8.03;5.05;;;;;;;20.96;46.63;101295.91;1748042;82;21053;-78
2022/10/14 03:39:36;;;;;;;10.40;5.08;;;;;;;20.96;46.63;101290.38;1748443;82;21508;-78
2022/10/14 03:42:03;;;;;;;8.20;4.90;;;;;;;20.96;46.64;101293.15;1748239;82;21500;-78
2022/10/14 03:44:29;;;;;;;6.10;5.08;;;;;;;20.97;46.65;101298.95;1716216;82;21044;-78
2022/10/14 03:46:55;;;;;;;7.83;5.47;;;;;;;20.95;46.61;101295.69;1748221;82;21819;-78
2022/10/14 03:49:22;;;;;;;7.60;5.05;;;;;;;20.96;46.65;101297.30;1748246;82;21032;-78
2022/10/14 03:51:48;;;;;;;7.17;5.10;;;;;;;20.96;46.65;101298.68;1748141;82;21014;-78
2022/10/14 03:54:15;;;;;;;6.92;4.97;;;;;;;20.96;46.62;101296.51;1716208;82;21124;-78
2022/10/14 03:56:41;;;;;;;6.97;5.22;;;;;;;20.96;46.64;101294.53;1724653;80;21056;-77
2022/10/14 03:59:07;;;;;;;6.28;4.87;;;;;;;20.96;46.65;101293.15;1718024;83;21506;-78
2022/10/14 04:01:34;;;;;;;7.42;5.08;;;;;;;20.97;46.66;101289.27;1724284;81;21518;-78
2022/10/14 04:04:00;;;;;;;7.42;4.83;;;;;;;21.00;46.64;101284.26;1753493;80;21039;-77
2022/10/14 04:06:27;;;;;;;7.03;5.08;;;;;;;21.02;46.63;101289.72;1753399;81;21012;-77
2022/10/14 04:08:53;;;;;;;9.38;5.08;;;;;;;21.05;46.62;101282.77;1753763;81;21040;-78
2022/10/14 04:11:19;;;;;;;6.60;4.35;;;;;;;21.10;46.58;101285.41;1753639;81;21940;-77
2022/10/14 04:13:46;;;;;;;8.63;4.40;;;;;;;21.15;46.55;101288.10;1753379;81;21068;-78
2022/10/14 04:16:12;;;;;;;7.83;4.33;;;;;;;21.21;46.53;101286.88;1753854;81;21075;-78
2022/10/14 04:18:38;;;;;;;5.50;3.92;;;;;;;21.27;46.55;101291.15;1753734;80;20964;-77
2022/10/14 04:21:08;;;;;;;8.55;4.67;;;;;;;21.34;46.54;101286.83;1753471;81;21004;-78
2022/10/14 04:23:34;;;;;;;9.45;5.03;;;;;;;21.43;46.49;101284.14;1694141;81;21196;-78
2022/10/14 04:26:05;;;;;;;16.82;5.00;;;;;;;21.51;46.39;101281.22;1753437;81;21100;-77
2022/10/14 04:28:37;;;;;;;18.07;4.97;;;;;;;21.58;46.27;101283.80;1723441;81;21037;-77
2022/10/14 04:31:04;;;;;;;12.93;5.37;;;;;;;21.68;46.16;101282.75;1753229;81;21565;-75
2022/10/14 04:33:30;;;;;;;8.20;4.37;;;;;;;21.77;46.03;101283.61;1753478;80;21125;-75
2022/10/14 04:36:02;;;;;;;8.30;5.80;;;;;;;21.84;45.91;101272.94;1753755;81;21101;-76
2022/10/14 04:38:28;;;;;;;10.85;4.87;;;;;;;21.93;45.79;101275.80;1735723;80;21071;-75
2022/10/14 04:40:55;;;;;;;8.65;4.92;;;;;;;22.04;45.65;101282.70;1696245;83;21067;-77
2022/10/14 04:43:21;;;;;;;12.05;5.08;;;;;;;22.12;45.49;101276.41;1695818;83;21127;-76
2022/10/14 04:45:47;;;;;;;13.35;5.87;;;;;;;22.19;45.32;101277.58;1740120;80;21017;-75
2022/10/14 04:48:14;;;;;;;10.72;5.35;;;;;;;22.24;45.18;101279.41;1743121;80;21135;-78
2022/10/14 04:50:40;;;;;;;13.13;5.42;;;;;;;22.32;45.08;101281.41;1706447;82;21058;-81
2022/10/14 04:53:09;;;;;;;16.05;6.42;;;;;;;22.38;44.98;101282.92;1730195;80;21141;-80
2022/10/14 04:55:35;;;;;;;17.23;9.35;;;;;;;22.45;44.87;101281.89;1743398;80;21110;-79
2022/10/14 04:58:02;;;;;;;14.78;8.65;;;;;;;22.50;44.77;101281.75;1729778;81;21083;-78
2022/10/14 05:00:29;;;;;;;18.90;8.40;;;;;;;22.53;44.64;101289.42;1709512;81;21154;-78
2022/10/14 05:02:55;;;;;;;14.30;8.05;;;;;;;22.53;44.62;101285.27;1708097;81;21095;-81
2022/10/14 05:05:24;;;;;;;17.25;7.87;;;;;;;22.57;44.54;101290.45;1704260;81;21221;-81
2022/10/14 05:07:50;;;;;;;23.45;7.70;;;;;;;22.59;44.48;101285.39;1738196;81;20995;-82
2022/10/14 05:10:16;;;;;;;23.02;7.37;;;;;;;22.63;44.43;101286.95;1708445;81;21067;-81
2022/10/14 05:12:42;;;;;;;16.42;8.40;;;;;;;22.65;44.40;101280.53;1749418;80;21114;-81
2022/10/14 05:15:10;;;;;;;18.50;8.68;;;;;;;22.66;44.35;101280.78;1715532;81;21035;-81
2022/10/14 05:17:38;;;;;;;16.50;8.05;;;;;;;22.65;44.36;101279.96;1740577;80;21630;-82
2022/10/14 05:20:05;;;;;;;13.30;7.35;;;;;;;22.64;44.36;101282.48;1741814;80;21075;-81
2022/10/14 05:22:32;;;;;;;18.92;7.28;;;;;;;22.66;44.35;101287.72;1704076;83;21134;-80
2022/10/14 05:24:58;;;;;;;19.62;7.45;;;;;;;22.65;44.29;101284.13;1710972;81;21208;-79
2022/10/14 05:27:24;;;;;;;15.78;8.03;;;;;;;22.63;44.33;101282.22;1706077;81;21071;-81
2022/10/14 05:29:50;;;;;;;15.00;7.17;;;;;;;22.62;44.33;101276.98;1720846;81;21048;-81
2022/10/14 05:32:23;;;;;;;15.15;6.75;;;;;;;22.58;44.34;101283.74;1736630;80;21282;-79
2022/10/14 05:34:49;;;;;;;16.02;6.53;;;;;;;22.57;44.39;101280.75;1706869;83;21442;-81
2022/10/14 05:37:15;;;;;;;11.93;6.10;;;;;;;22.55;44.39;101277.45;1705483;81;21824;-81
2022/10/14 05:39:41;;;;;;;12.13;5.90;;;;;;;22.53;44.42;101285.27;1739771;80;21091;-82
2022/10/14 05:42:08;;;;;;;12.10;6.55;;;;;;;22.51;44.43;101288.94;1744195;80;21083;-84
2022/10/14 05:44:34;;;;;;;16.97;6.10;;;;;;;22.49;44.46;101293.97;1738064;80;21115;-85
2022/10/14 05:47:00;;;;;;;15.72;6.37;;;;;;;22.47;44.47;101299.03;1736721;81;21066;-76
2022/10/14 05:49:26;;;;;;;15.25;6.65;;;;;;;22.43;44.51;101295.83;1686269;83;21514;-79
2022/10/14 05:51:53;;;;;;;13.80;5.25;;;;;;;22.41;44.67;101297.52;1714462;81;21111;-77
2022/10/14 05:54:19;;;;;;;13.65;5.20;;;;;;;22.38;44.70;101293.19;1701809;81;21060;-80
2022/10/14 05:56:45;;;;;;;19.67;5.90;;;;;;;22.32;44.79;101295.27;1718812;80;21341;-77
2022/10/14 05:59:12;;;;;;;18.32;5.70;;;;;;;22.26;44.98;101295.98;1726746;80;21094;-78
2022/10/14 06:01:39;;;;;;;16.80;6.37;;;;;;;22.22;45.20;101294.16;1732657;80;22425;-76
2022/10/14 06:04:06;;;;;;;19.12;5.17;;;;;;;22.17;45.43;101292.34;1727109;80;21111;-79
2022/10/14 06:06:32;;;;;;;15.55;6.37;;;;;;;22.14;45.59;101292.16;1722951;80;21092;-79
2022/10/14 06:08:58;;;;;;;13.75;5.97;;;;;;;22.12;45.70;101294.41;1716799;80;21037;-80
2022/10/14 06:11:26;;;;;;;16.65;5.50;;;;;;;22.10;45.74;101293.92;1732436;82;21068;-81
2022/10/14 06:13:53;;;;;;;23.52;5.72;;;;;;;22.08;45.83;101299.77;1724520;82;21269;-82
2022/10/14 06:16:20;;;;;;;18.92;6.40;;;;;;;22.07;46.15;101301.47;1713451;82;21064;-80
2022/10/14 06:18:48;;;;;;;16.85;5.15;;;;;;;22.05;46.22;101299.59;1715527;82;21052;-81
2022/10/14 06:21:15;;;;;;;16.75;6.05;;;;;;;22.04;46.23;101308.47;1691127;82;21316;-76
2022/10/14 06:23:42;;;;;;;10.48;5.72;;;;;;;22.03;46.20;101305.44;1714498;80;21395;-78
2022/10/14 06:26:10;;;;;;;14.00;5.30;;;;;;;22.02;46.14;101305.77;1698616;82;21847;-75
2022/10/14 06:28:37;;;;;;;16.10;6.22;;;;;;;22.01;46.10;101309.67;1717503;82;21495;-78
2022/10/14 06:31:05;;;;;;;8.50;4.47;;;;;;;22.00;46.10;101306.64;1703260;80;21029;-77
2022/10/14 06:33:31;;;;;;;13.05;5.55;;;;;;;21.98;46.05;101309.72;1698606;82;21024;-78
2022/10/14 06:35:57;;;;;;;10.60;5.33;;;;;;;21.94;46.01;101311.48;1704336;82;21060;-76
2022/10/14 06:38:24;;;;;;;10.05;5.25;;;;;;;21.93;45.96;101306.27;1728756;81;21972;-80
2022/10/14 06:40:53;;;;;;;11.30;4.92;;;;;;;21.90;45.93;101309.05;1722555;82;21084;-77
2022/10/14 06:43:20;;;;;;;10.05;4.78;;;;;;;21.88;45.90;101313.55;1719359;82;21097;-78
2022/10/14 06:45:47;;;;;;;10.95;4.65;;;;;;;21.85;45.92;101312.77;1735553;80;21108;-77
2022/10/14 06:48:13;;;;;;;15.25;4.55;;;;;;;21.82;45.92;101312.58;1729938;80;21118;-80
2022/10/14 06:50:39;;;;;;;16.65;4.92;;;;;;;21.77;45.83;101316.28;1724728;82;21227;-79
2022/10/14 06:53:06;;;;;;;11.25;4.97;;;;;;;21.74;46.11;101318.30;1729419;80;21776;-78
2022/10/14 06:55:38;;;;;;;23.55;5.10;;;;;;;21.72;46.08;101323.92;1726746;80;21112;-79
2022/10/14 06:58:04;;;;;;;19.73;5.25;;;;;;;21.69;46.14;101317.59;1694229;81;21067;-81
2022/10/14 07:00:30;;;;;;;15.93;4.90;;;;;;;21.67;46.30;101312.39;1750575;80;21040;-80
2022/10/14 07:03:00;;;;;;;20.35;5.72;;;;;;;21.67;46.42;101317.93;1746404;80;21689;-80
2022/10/14 07:05:26;;;;;;;15.48;4.95;;;;;;;21.66;46.42;101306.59;1737362;80;21092;-84
2022/10/14 07:07:52;;;;;;;16.62;5.15;;;;;;;21.65;46.45;101306.33;1708268;80;21127;-83
2022/10/14 07:10:19;;;;;;;10.55;5.05;;;;;;;21.64;46.45;101312.20;1697587;81;21111;-83
2022/10/14 07:12:55;;;;;;;10.05;4.28;;;;;;;21.61;46.55;101307.27;1679974;84;21083;-86
2022/10/14 07:15:21;;;;;;;18.52;4.78;;;;;;;21.61;46.72;101305.32;1720513;79;21258;-88
2022/10/14 07:17:48;;;;;;;16.57;4.87;;;;;;;21.61;46.82;101307.27;1692349;82;21064;-82
2022/10/14 07:20:20;;;;;;;21.42;5.10;;;;;;;21.60;47.18;101310.59;1730056;81;21360;-84
2022/10/14 07:22:47;;;;;;;14.10;4.97;;;;;;;21.61;47.29;101307.27;1710660;82;21217;-85
2022/10/14 07:25:13;;;;;;;16.35;5.08;;;;;;;21.61;47.43;101310.03;1740797;80;21078;-82
2022/10/14 07:27:39;;;;;;;20.95;5.12;;;;;;;21.60;47.52;101307.04;1711178;81;21065;-84
2022/10/14 07:30:08;;;;;;;17.48;4.95;;;;;;;21.59;47.63;101310.37;1697567;83;22062;-85
2022/10/14 07:32:35;;;;;;;13.55;4.58;;;;;;;21.58;47.72;101305.95;1699096;83;21104;-80
2022/10/14 07:35:04;;;;;;;13.25;4.47;;;;;;;21.60;47.79;101306.45;1696759;83;21112;-83
2022/10/14 07:37:37;;;;;;;13.15;5.08;;;;;;;21.59;47.74;101302.06;1693450;82;21095;-81
2022/10/14 07:40:04;;;;;;;12.50;4.22;;;;;;;21.59;47.73;101303.45;1697504;82;21064;-81
2022/10/14 07:42:30;;;;;;;11.10;4.37;;;;;;;21.58;47.67;101307.34;1733350;80;21087;-81
2022/10/14 07:44:57;;;;;;;12.25;4.72;;;;;;;21.58;47.81;101305.13;1712432;81;21104;-87
2022/10/14 07:47:23;;;;;;;18.77;4.87;;;;;;;21.57;47.82;101313.17;1743704;80;21067;-85
2022/10/14 07:49:49;;;;;;;9.78;3.87;;;;;;;21.57;47.82;101311.80;1738112;78;21662;-83
2022/10/14 07:52:18;;;;;;;13.95;4.05;;;;;;;21.54;47.67;101301.34;1694847;83;21267;-77
2022/10/14 07:54:44;;;;;;;13.43;4.25;;;;;;;21.51;47.56;101302.80;1712911;81;21114;-84
2022/10/14 07:57:17;;;;;;;8.98;3.85;;;;;;;21.47;47.52;101305.95;1697779;83;21144;-79
2022/10/14 07:59:45;;;;;;;20.97;4.25;;;;;;;21.45;47.38;101302.66;1712809;81;21115;-82
2022/10/14 08:02:18;;;;;;;10.50;3.90;;;;;;;21.40;47.09;101302.77;1702291;81;21053;-84
2022/10/14 08:04:45;;;;;;;13.08;3.98;;;;;;;21.34;47.17;101295.72;1736806;80;21680;-81
2022/10/14 08:07:14;;;;;;;17.20;3.72;;;;;;;21.30;47.26;101292.73;1739757;80;21665;-86
2022/10/14 08:09:40;;;;;;;9.40;3.50;;;;;;;21.30;47.22;101288.58;1663102;83;21662;-87
2022/10/14 08:12:07;;;;;;;15.40;3.77;;;;;;;21.30;47.21;101293.32;1743530;81;21102;-79
2022/10/14 08:14:34;;;;;;;15.58;4.42;;;;;;;21.30;47.20;101287.19;1703231;82;21153;-84
2022/10/14 08:17:01;;;;;;;23.32;4.85;;;;;;;21.30;47.17;101286.41;1742114;81;21136;-84
2022/10/14 08:19:28;;;;;;;17.00;4.12;;;;;;;21.31;47.30;101288.84;1712132;81;47414;-83
2022/10/14 08:21:55;;;;;;;11.40;3.50;;;;;;;21.33;47.37;101286.59;1742569;81;21792;-83
2022/10/14 08:24:22;;;;;;;13.28;3.60;;;;;;;21.35;47.29;101287.09;1707493;82;21004;-83
2022/10/14 08:26:55;;;;;;;10.80;3.83;;;;;;;21.36;47.19;101279.61;1738137;80;21168;-81
2022/10/14 08:29:28;;;;;;;11.20;4.33;;;;;;;21.36;47.09;101282.38;1743549;80;21079;-80
2022/10/14 08:31:54;;;;;;;11.08;3.37;;;;;;;21.35;47.04;101283.49;1707758;81;21183;-83
2022/10/14 08:34:23;;;;;;;11.55;3.62;;;;;;;21.32;47.05;101284.95;1701016;80;22135;-80
2022/10/14 08:36:50;;;;;;;13.72;3.95;;;;;;;21.32;47.13;101290.48;1739039;81;21163;-81
2022/10/14 08:39:18;;;;;;;15.65;4.10;;;;;;;21.32;47.27;101280.80;1741514;81;21127;-81
2022/10/14 08:42:38;;;;;;;11.18;4.28;;;;;;;21.32;47.27;101289.66;1734587;80;22145;-82
2022/10/14 08:45:18;;;;;;;15.15;3.62;;;;;;;21.29;47.43;101291.67;1707848;82;21036;-84
2022/10/14 08:47:45;;;;;;;18.30;4.62;;;;;;;21.28;47.42;101290.03;1734420;80;21525;-85
2022/10/14 08:50:44;;;;;;;20.15;3.77;;;;;;;21.27;47.41;101296.69;1733174;80;21103;-87
2022/10/14 08:53:44;;;;;;;20.30;3.77;;;;;;;21.28;47.50;101298.33;1732734;80;21052;-86
2022/10/14 08:56:12;;;;;;;10.50;3.27;;;;;;;21.27;47.51;101290.59;1707290;81;21131;-84
2022/10/14 08:58:52;;;;;;;23.32;4.08;;;;;;;21.28;47.63;101296.39;1698916;82;21060;-83
2022/10/14 09:01:30;;;;;;;22.10;3.83;;;;;;;21.29;47.66;101293.06;1729810;80;21019;-85
2022/10/14 09:04:02;;;;;;;13.83;3.70;;;;;;;21.28;47.79;101295.56;1743881;80;21064;-82
2022/10/14 09:06:30;;;;;;;16.52;3.77;;;;;;;21.27;47.96;101289.77;1740343;80;21154;-83
2022/10/14 09:09:17;;;;;;;11.05;3.20;;;;;;;21.25;47.95;101285.95;1703925;82;21607;-82
2022/10/14 09:11:47;;;;;;;11.68;3.15;;;;;;;21.26;48.00;101290.33;1706789;81;21572;-84
2022/10/14 09:14:18;;;;;;;15.35;3.55;;;;;;;21.24;48.00;101289.84;1732729;80;21107;-84
2022/10/14 09:16:45;;;;;;;13.00;3.58;;;;;;;21.25;48.02;101290.09;1724513;81;21096;-83
2022/10/14 09:19:36;;;;;;;11.50;3.02;;;;;;;21.26;47.99;101297.25;1717693;80;21217;-84
2022/10/14 09:22:02;;;;;;;;;;;;;;;21.27;47.93;101301.66;1707417;82;21560;-82
2022/10/14 09:24:38;;;;;;;10.45;3.20;;;;;;;21.27;47.80;101306.38;1675740;83;20868;-83
2022/10/14 09:27:10;;;;;;;9.60;3.25;;;;;;;21.25;47.79;101304.49;1706268;81;21112;-81
2022/10/14 09:29:59;;;;;;;11.53;3.15;;;;;;;21.26;47.70;101303.38;1708011;82;21119;-83
2022/10/14 09:32:47;;;;;;;10.70;3.00;;;;;;;21.25;47.58;101301.17;1745331;80;21111;-83
2022/10/14 09:35:36;;;;;;;8.30;2.87;;;;;;;21.24;47.46;101298.70;1733763;80;21244;-81
2022/10/14 09:38:03;;;;;;;6.92;3.22;;;;;;;21.23;47.44;101299.26;1740528;80;21627;-82
2022/10/14 09:40:38;;;;;;;9.23;2.77;;;;;;;21.23;47.41;101294.28;1741441;80;20956;-83
2022/10/14 09:43:18;;;;;;;9.73;3.17;;;;;;;21.24;47.34;101303.67;1737017;80;21044;-83
2022/10/14 09:46:09;;;;;;;8.13;2.80;;;;;;;21.25;47.25;101299.78;1738972;81;22117;-83
2022/10/14 09:48:49;;;;;;;;;;;;;;;21.27;47.13;101303.60;1746991;80;21578;-82
2022/10/14 09:51:31;;;;;;;11.00;2.90;;;;;;;21.21;46.78;101300.15;1739521;80;20237;-83
2022/10/14 09:54:00;;;;;;;8.45;3.02;;;;;;;21.14;46.92;101296.14;1736565;80;22307;-81
2022/10/14 09:56:37;;;;;;;12.88;3.22;;;;;;;21.09;46.98;101292.88;1746799;81;20955;-81
2022/10/14 09:59:20;;;;;;;16.27;2.92;;;;;;;21.05;46.97;101297.98;1747905;81;21200;-81
2022/10/14 10:01:55;;;;;;;11.73;3.92;;;;;;;21.01;46.96;101298.31;1724202;80;21956;-81
2022/10/14 10:04:36;;;;;;;14.47;3.00;;;;;;;20.95;47.07;101300.39;1738819;81;21036;-83
2022/10/14 10:07:06;;;;;;;19.80;5.10;;;;;;;20.92;47.11;101305.14;1703311;80;21455;-82
2022/10/14 10:09:32;;;;;;;14.85;3.20;;;;;;;20.91;47.08;101300.75;1695468;83;21116;-82
2022/10/14 10:11:59;;;;;;;7.95;3.08;;;;;;;20.92;47.10;101310.11;1714384;82;21107;-82
2022/10/14 10:14:32;;;;;;;15.90;3.15;;;;;;;20.95;47.08;101301.78;1720659;81;21071;-82
2022/10/14 10:17:17;;;;;;;8.90;3.70;;;;;;;20.96;47.06;101295.13;1741187;81;21598;-82
2022/10/14 10:19:46;;;;;;;9.53;3.00;;;;;;;20.98;46.97;101286.76;1744976;80;21456;-82
2022/10/14 10:22:30;;;;;;;6.15;2.95;;;;;;;21.00;46.94;101293.38;1753127;80;21097;-82
2022/10/14 10:25:10;;;;;;;10.20;2.90;;;;;;;21.01;46.83;101288.64;1746682;80;21079;-85
2022/10/14 10:27:42;;;;;;;7.60;3.00;;;;;;;21.00;46.75;101285.64;1740673;80;21043;-83
2022/10/14 10:30:26;;;;;;;11.10;3.05;;;;;;;20.97;46.67;101287.87;1739562;80;21166;-81
2022/10/14 10:33:34;;;;;;;10.20;2.80;;;;;;;20.97;46.66;101278.76;1739417;80;21086;-82
2022/10/14 10:36:22;;;;;;;9.58;3.15;;;;;;;20.98;46.66;101283.17;1735396;80;21575;-83
2022/10/14 10:39:26;;;;;;;5.47;2.92;;;;;;;20.97;46.61;101272.66;1704467;81;21641;-80
2022/10/14 10:42:21;;;;;;;7.20;2.80;;;;;;;20.97;46.61;101272.66;1740973;80;21063;-83
2022/10/14 10:45:14;;;;;;;9.75;3.00;;;;;;;20.97;46.63;101269.90;1740295;80;21088;-81
2022/10/14 10:47:56;;;;;;;8.80;3.17;;;;;;;20.96;46.63;101264.11;1732988;80;21056;-83
2022/10/14 10:50:56;;;;;;;6.40;2.65;;;;;;;20.98;46.58;101267.95;1727546;80;21424;-83
2022/10/14 10:53:43;;;;;;;9.25;3.10;;;;;;;20.96;46.59;101258.57;1739528;80;21277;-82
2022/10/14 10:56:40;;;;;;;;;;;;;;;20.97;46.73;101256.06;1743834;80;21141;-84
2022/10/14 10:59:29;;;;;;;4.75;2.62;;;;;;;20.96;46.79;101255.02;1689515;81;20202;-80
2022/10/14 11:02:44;;;;;;;8.15;3.02;;;;;;;20.92;46.87;101249.81;1744098;81;21066;-83
2022/10/14 11:05:36;;;;;;;13.55;3.77;;;;;;;20.89;47.04;101249.06;1735765;81;21139;-81
2022/10/14 11:14:54;;;;;;;11.50;3.27;;;;;;;20.91;47.36;101239.34;1740212;81;21087;-86
2022/10/14 11:17:41;;;;;;;10.15;3.45;;;;;;;20.92;47.36;101240.14;1743232;81;21103;-83
2022/10/14 11:20:21;;;;;;;7.53;2.77;;;;;;;20.92;47.38;101227.13;1723811;81;21589;-83
2022/10/14 11:23:15;;;;;;;10.20;2.98;;;;;;;20.92;47.37;101225.75;1759976;80;21581;-81
2022/10/14 11:26:12;;;;;;;14.38;3.42;;;;;;;20.92;47.33;101221.59;1743113;80;21228;-82
2022/10/14 11:28:50;;;;;;;8.35;2.92;;;;;;;20.93;47.31;101223.24;1734908;81;21020;-83
2022/10/14 11:31:40;;;;;;;8.08;2.90;;;;;;;20.94;47.25;101224.06;1700496;83;21107;-82
2022/10/14 11:34:40;;;;;;;14.67;4.20;;;;;;;20.94;47.21;101220.73;1750229;80;21067;-80
2022/10/14 11:37:21;;;;;;;7.15;3.22;;;;;;;20.95;47.18;101217.41;1704837;83;21575;-80
2022/10/14 11:40:07;;;;;;;12.60;3.25;;;;;;;20.95;47.16;101221.56;1707275;83;21136;-83
2022/10/14 11:42:45;;;;;;;11.75;3.22;;;;;;;20.95;47.13;101214.08;1717455;82;21605;-81
2022/10/14 11:45:47;;;;;;;7.03;2.98;;;;;;;20.94;47.15;101210.23;1714395;81;21091;-80
2022/10/14 11:48:40;;;;;;;9.95;2.83;;;;;;;20.94;47.10;101206.91;1720835;81;21096;-83
2022/10/14 11:51:29;;;;;;;5.92;2.70;;;;;;;20.95;47.06;101204.41;1693737;83;21057;-82
2022/10/14 11:54:13;;;;;;;9.53;2.87;;;;;;;20.96;46.98;101190.80;1667688;83;22908;-86